sensor_id;sensor_type;location;lat;lon;timestamp;P1;durP1;ratioP1;P2;durP2;ratioP2
64789;SDS011;51223;51.816;5.862;2023-02-15T00:00:09;9.65;;;5.68;;
64789;SDS011;51223;51.816;5.862;2023-02-15T00:02:38;11.00;;;6.05;;
64789;SDS011;51223;51.816;5.862;2023-02-15T00:05:04;11.90;;;6.68;;
64789;SDS011;51223;51.816;5.862;2023-02-15T00:07:29;11.50;;;5.78;;
64789;SDS011;51223;51.816;5.862;2023-02-15T00:09:55;14.43;;;5.47;;
64789;SDS011;51223;51.816;5.862;2023-02-15T00:12:20;12.35;;;6.03;;
64789;SDS011;51223;51.816;5.862;2023-02-15T00:14:47;9.82;;;5.75;;
64789;SDS011;51223;51.816;5.862;2023-02-15T00:17:12;10.50;;;6.20;;
64789;SDS011;51223;51.816;5.862;2023-02-15T00:19:38;10.68;;;5.20;;
64789;SDS011;51223;51.816;5.862;2023-02-15T00:22:03;14.80;;;6.47;;
64789;SDS011;51223;51.816;5.862;2023-02-15T00:24:29;11.15;;;6.63;;
64789;SDS011;51223;51.816;5.862;2023-02-15T00:26:54;10.50;;;5.55;;
64789;SDS011;51223;51.816;5.862;2023-02-15T00:29:20;10.48;;;5.50;;
64789;SDS011;51223;51.816;5.862;2023-02-15T00:31:46;9.85;;;5.75;;
64789;SDS011;51223;51.816;5.862;2023-02-15T00:36:37;10.30;;;6.57;;
64789;SDS011;51223;51.816;5.862;2023-02-15T00:39:03;11.73;;;7.63;;
64789;SDS011;51223;51.816;5.862;2023-02-15T00:41:30;8.65;;;5.30;;
64789;SDS011;51223;51.816;5.862;2023-02-15T00:43:58;6.28;;;4.13;;
64789;SDS011;51223;51.816;5.862;2023-02-15T00:46:24;8.35;;;5.10;;
64789;SDS011;51223;51.816;5.862;2023-02-15T00:48:50;11.05;;;5.63;;
64789;SDS011;51223;51.816;5.862;2023-02-15T00:51:18;9.98;;;5.78;;
64789;SDS011;51223;51.816;5.862;2023-02-15T00:53:45;9.85;;;4.97;;
64789;SDS011;51223;51.816;5.862;2023-02-15T00:56:11;10.13;;;5.72;;
64789;SDS011;51223;51.816;5.862;2023-02-15T00:58:36;9.50;;;5.28;;
64789;SDS011;51223;51.816;5.862;2023-02-15T01:01:06;8.90;;;5.55;;
64789;SDS011;51223;51.816;5.862;2023-02-15T01:03:31;9.15;;;5.13;;
64789;SDS011;51223;51.816;5.862;2023-02-15T01:05:57;7.97;;;4.70;;
64789;SDS011;51223;51.816;5.862;2023-02-15T01:08:23;9.45;;;5.03;;
64789;SDS011;51223;51.816;5.862;2023-02-15T01:10:48;9.02;;;5.25;;
64789;SDS011;51223;51.816;5.862;2023-02-15T01:13:15;8.88;;;5.50;;
64789;SDS011;51223;51.816;5.862;2023-02-15T01:15:41;7.22;;;4.10;;
64789;SDS011;51223;51.816;5.862;2023-02-15T01:18:07;8.77;;;4.95;;
64789;SDS011;51223;51.816;5.862;2023-02-15T01:20:34;10.48;;;5.57;;
64789;SDS011;51223;51.816;5.862;2023-02-15T01:22:59;14.68;;;6.38;;
64789;SDS011;51223;51.816;5.862;2023-02-15T01:25:25;8.93;;;5.30;;
64789;SDS011;51223;51.816;5.862;2023-02-15T01:27:50;8.35;;;4.65;;
64789;SDS011;51223;51.816;5.862;2023-02-15T01:30:16;8.77;;;5.97;;
64789;SDS011;51223;51.816;5.862;2023-02-15T01:32:42;9.43;;;4.82;;
64789;SDS011;51223;51.816;5.862;2023-02-15T01:35:08;11.32;;;5.80;;
64789;SDS011;51223;51.816;5.862;2023-02-15T01:37:34;9.65;;;5.05;;
64789;SDS011;51223;51.816;5.862;2023-02-15T01:40:00;7.95;;;4.55;;
64789;SDS011;51223;51.816;5.862;2023-02-15T01:42:26;9.70;;;5.03;;
64789;SDS011;51223;51.816;5.862;2023-02-15T01:47:39;16.88;;;5.40;;
64789;SDS011;51223;51.816;5.862;2023-02-15T01:50:23;15.63;;;4.85;;
64789;SDS011;51223;51.816;5.862;2023-02-15T01:52:56;10.70;;;4.78;;
64789;SDS011;51223;51.816;5.862;2023-02-15T01:55:27;8.60;;;4.70;;
64789;SDS011;51223;51.816;5.862;2023-02-15T01:57:54;9.52;;;4.70;;
64789;SDS011;51223;51.816;5.862;2023-02-15T02:00:19;5.50;;;3.97;;
64789;SDS011;51223;51.816;5.862;2023-02-15T02:02:47;10.95;;;4.82;;
64789;SDS011;51223;51.816;5.862;2023-02-15T02:05:14;7.22;;;5.00;;
64789;SDS011;51223;51.816;5.862;2023-02-15T02:07:40;9.38;;;3.63;;
64789;SDS011;51223;51.816;5.862;2023-02-15T02:10:07;7.45;;;4.53;;
64789;SDS011;51223;51.816;5.862;2023-02-15T02:12:33;9.02;;;5.05;;
64789;SDS011;51223;51.816;5.862;2023-02-15T02:15:02;7.78;;;4.30;;
64789;SDS011;51223;51.816;5.862;2023-02-15T02:17:39;7.97;;;5.30;;
64789;SDS011;51223;51.816;5.862;2023-02-15T02:35:27;7.97;;;4.78;;
64789;SDS011;51223;51.816;5.862;2023-02-15T02:40:46;8.00;;;5.03;;
64789;SDS011;51223;51.816;5.862;2023-02-15T02:43:25;8.13;;;5.10;;
64789;SDS011;51223;51.816;5.862;2023-02-15T02:45:58;9.80;;;4.97;;
64789;SDS011;51223;51.816;5.862;2023-02-15T02:48:26;6.40;;;4.03;;
64789;SDS011;51223;51.816;5.862;2023-02-15T02:50:52;8.00;;;5.20;;
64789;SDS011;51223;51.816;5.862;2023-02-15T02:53:18;10.57;;;5.30;;
64789;SDS011;51223;51.816;5.862;2023-02-15T02:55:48;9.55;;;4.22;;
64789;SDS011;51223;51.816;5.862;2023-02-15T03:00:57;12.43;;;4.72;;
64789;SDS011;51223;51.816;5.862;2023-02-15T03:06:33;7.93;;;4.25;;
64789;SDS011;51223;51.816;5.862;2023-02-15T03:09:07;8.63;;;4.55;;
64789;SDS011;51223;51.816;5.862;2023-02-15T03:11:33;9.18;;;5.43;;
64789;SDS011;51223;51.816;5.862;2023-02-15T03:13:59;8.23;;;4.93;;
64789;SDS011;51223;51.816;5.862;2023-02-15T03:16:24;11.25;;;4.53;;
64789;SDS011;51223;51.816;5.862;2023-02-15T03:21:25;7.00;;;4.60;;
64789;SDS011;51223;51.816;5.862;2023-02-15T03:23:54;8.82;;;4.20;;
64789;SDS011;51223;51.816;5.862;2023-02-15T03:26:21;7.60;;;4.65;;
64789;SDS011;51223;51.816;5.862;2023-02-15T03:28:49;11.13;;;4.65;;
64789;SDS011;51223;51.816;5.862;2023-02-15T03:31:17;7.47;;;3.70;;
64789;SDS011;51223;51.816;5.862;2023-02-15T03:33:54;11.15;;;4.03;;
64789;SDS011;51223;51.816;5.862;2023-02-15T03:36:29;6.85;;;4.18;;
64789;SDS011;51223;51.816;5.862;2023-02-15T03:41:42;8.30;;;4.72;;
64789;SDS011;51223;51.816;5.862;2023-02-15T03:45:13;10.10;;;5.78;;
64789;SDS011;51223;51.816;5.862;2023-02-15T03:47:06;7.60;;;4.32;;
64789;SDS011;51223;51.816;5.862;2023-02-15T03:52:02;11.70;;;5.30;;
64789;SDS011;51223;51.816;5.862;2023-02-15T03:54:30;8.63;;;4.32;;
64789;SDS011;51223;51.816;5.862;2023-02-15T03:57:13;11.27;;;4.63;;
64789;SDS011;51223;51.816;5.862;2023-02-15T03:59:57;13.32;;;5.45;;
64789;SDS011;51223;51.816;5.862;2023-02-15T04:05:19;10.48;;;5.80;;
64789;SDS011;51223;51.816;5.862;2023-02-15T04:07:45;13.25;;;6.65;;
64789;SDS011;51223;51.816;5.862;2023-02-15T04:10:11;8.23;;;3.85;;
64789;SDS011;51223;51.816;5.862;2023-02-15T04:12:55;8.38;;;4.97;;
64789;SDS011;51223;51.816;5.862;2023-02-15T04:15:21;15.73;;;4.90;;
64789;SDS011;51223;51.816;5.862;2023-02-15T04:18:05;6.77;;;4.73;;
64789;SDS011;51223;51.816;5.862;2023-02-15T04:20:30;4.97;;;3.25;;
64789;SDS011;51223;51.816;5.862;2023-02-15T04:23:15;6.37;;;4.50;;
64789;SDS011;51223;51.816;5.862;2023-02-15T04:26:02;8.63;;;4.13;;
64789;SDS011;51223;51.816;5.862;2023-02-15T04:28:28;13.95;;;5.07;;
64789;SDS011;51223;51.816;5.862;2023-02-15T04:30:54;8.98;;;5.05;;
64789;SDS011;51223;51.816;5.862;2023-02-15T04:33:19;14.57;;;5.75;;
64789;SDS011;51223;51.816;5.862;2023-02-15T04:35:45;8.70;;;6.05;;
64789;SDS011;51223;51.816;5.862;2023-02-15T04:38:10;8.43;;;5.60;;
64789;SDS011;51223;51.816;5.862;2023-02-15T04:40:36;6.97;;;4.90;;
64789;SDS011;51223;51.816;5.862;2023-02-15T04:43:02;10.25;;;5.47;;
64789;SDS011;51223;51.816;5.862;2023-02-15T04:45:27;9.98;;;5.55;;
64789;SDS011;51223;51.816;5.862;2023-02-15T04:47:53;6.97;;;4.57;;
64789;SDS011;51223;51.816;5.862;2023-02-15T04:50:18;8.25;;;5.15;;
64789;SDS011;51223;51.816;5.862;2023-02-15T04:52:44;7.45;;;4.55;;
64789;SDS011;51223;51.816;5.862;2023-02-15T04:55:09;8.18;;;5.00;;
64789;SDS011;51223;51.816;5.862;2023-02-15T04:57:35;8.25;;;5.45;;
64789;SDS011;51223;51.816;5.862;2023-02-15T05:00:01;10.10;;;4.88;;
64789;SDS011;51223;51.816;5.862;2023-02-15T05:02:26;10.30;;;5.63;;
64789;SDS011;51223;51.816;5.862;2023-02-15T05:04:52;10.13;;;5.32;;
64789;SDS011;51223;51.816;5.862;2023-02-15T05:07:18;9.95;;;5.75;;
64789;SDS011;51223;51.816;5.862;2023-02-15T05:09:45;8.20;;;5.80;;
64789;SDS011;51223;51.816;5.862;2023-02-15T05:12:11;8.93;;;5.15;;
64789;SDS011;51223;51.816;5.862;2023-02-15T05:14:36;9.07;;;5.53;;
64789;SDS011;51223;51.816;5.862;2023-02-15T05:17:02;8.90;;;5.50;;
64789;SDS011;51223;51.816;5.862;2023-02-15T05:19:28;7.40;;;4.60;;
64789;SDS011;51223;51.816;5.862;2023-02-15T05:21:54;6.38;;;4.13;;
64789;SDS011;51223;51.816;5.862;2023-02-15T05:24:20;12.48;;;6.10;;
64789;SDS011;51223;51.816;5.862;2023-02-15T05:27:04;9.05;;;5.45;;
64789;SDS011;51223;51.816;5.862;2023-02-15T05:29:49;6.95;;;4.63;;
64789;SDS011;51223;51.816;5.862;2023-02-15T05:32:14;8.90;;;6.13;;
64789;SDS011;51223;51.816;5.862;2023-02-15T05:34:40;10.50;;;6.07;;
64789;SDS011;51223;51.816;5.862;2023-02-15T05:37:05;9.57;;;5.75;;
64789;SDS011;51223;51.816;5.862;2023-02-15T05:39:32;8.77;;;5.53;;
64789;SDS011;51223;51.816;5.862;2023-02-15T05:42:01;11.68;;;6.32;;
64789;SDS011;51223;51.816;5.862;2023-02-15T05:44:26;9.00;;;6.35;;
64789;SDS011;51223;51.816;5.862;2023-02-15T05:46:52;12.20;;;6.45;;
64789;SDS011;51223;51.816;5.862;2023-02-15T05:49:17;13.73;;;6.95;;
64789;SDS011;51223;51.816;5.862;2023-02-15T05:51:43;16.77;;;6.60;;
64789;SDS011;51223;51.816;5.862;2023-02-15T05:54:09;10.20;;;5.97;;
64789;SDS011;51223;51.816;5.862;2023-02-15T05:56:34;11.85;;;5.80;;
64789;SDS011;51223;51.816;5.862;2023-02-15T05:59:00;4.45;;;3.38;;
64789;SDS011;51223;51.816;5.862;2023-02-15T06:01:25;7.03;;;4.38;;
64789;SDS011;51223;51.816;5.862;2023-02-15T06:03:51;7.85;;;4.53;;
64789;SDS011;51223;51.816;5.862;2023-02-15T06:06:17;5.75;;;4.45;;
64789;SDS011;51223;51.816;5.862;2023-02-15T06:08:45;8.18;;;5.28;;
64789;SDS011;51223;51.816;5.862;2023-02-15T06:11:11;10.05;;;4.63;;
64789;SDS011;51223;51.816;5.862;2023-02-15T06:13:36;4.22;;;2.85;;
64789;SDS011;51223;51.816;5.862;2023-02-15T06:16:02;4.55;;;3.55;;
64789;SDS011;51223;51.816;5.862;2023-02-15T06:18:27;9.38;;;5.70;;
64789;SDS011;51223;51.816;5.862;2023-02-15T06:20:53;5.40;;;3.97;;
64789;SDS011;51223;51.816;5.862;2023-02-15T06:23:19;6.47;;;3.75;;
64789;SDS011;51223;51.816;5.862;2023-02-15T06:25:45;7.65;;;4.65;;
64789;SDS011;51223;51.816;5.862;2023-02-15T06:28:11;10.02;;;4.72;;
64789;SDS011;51223;51.816;5.862;2023-02-15T06:30:36;12.02;;;5.38;;
64789;SDS011;51223;51.816;5.862;2023-02-15T06:33:02;5.97;;;4.47;;
64789;SDS011;51223;51.816;5.862;2023-02-15T06:35:28;8.50;;;5.75;;
64789;SDS011;51223;51.816;5.862;2023-02-15T06:37:53;8.63;;;5.35;;
64789;SDS011;51223;51.816;5.862;2023-02-15T06:40:19;9.13;;;4.97;;
64789;SDS011;51223;51.816;5.862;2023-02-15T06:42:44;6.50;;;4.07;;
64789;SDS011;51223;51.816;5.862;2023-02-15T06:45:10;8.05;;;4.75;;
64789;SDS011;51223;51.816;5.862;2023-02-15T06:47:36;9.70;;;6.60;;
64789;SDS011;51223;51.816;5.862;2023-02-15T06:50:02;9.50;;;4.50;;
64789;SDS011;51223;51.816;5.862;2023-02-15T06:52:28;9.57;;;5.47;;
64789;SDS011;51223;51.816;5.862;2023-02-15T06:54:54;5.07;;;3.13;;
64789;SDS011;51223;51.816;5.862;2023-02-15T06:57:20;6.43;;;4.05;;
64789;SDS011;51223;51.816;5.862;2023-02-15T06:59:45;11.30;;;6.15;;
64789;SDS011;51223;51.816;5.862;2023-02-15T07:02:11;13.60;;;7.18;;
64789;SDS011;51223;51.816;5.862;2023-02-15T07:04:37;16.73;;;6.60;;
64789;SDS011;51223;51.816;5.862;2023-02-15T07:07:03;14.43;;;6.78;;
64789;SDS011;51223;51.816;5.862;2023-02-15T07:09:28;9.48;;;6.50;;
64789;SDS011;51223;51.816;5.862;2023-02-15T07:11:54;10.05;;;5.53;;
64789;SDS011;51223;51.816;5.862;2023-02-15T07:14:38;9.00;;;6.60;;
64789;SDS011;51223;51.816;5.862;2023-02-15T07:17:03;11.35;;;6.43;;
64789;SDS011;51223;51.816;5.862;2023-02-15T07:19:29;13.98;;;7.35;;
64789;SDS011;51223;51.816;5.862;2023-02-15T07:21:55;11.95;;;5.53;;
64789;SDS011;51223;51.816;5.862;2023-02-15T07:24:20;12.18;;;6.57;;
64789;SDS011;51223;51.816;5.862;2023-02-15T07:26:46;11.90;;;6.85;;
64789;SDS011;51223;51.816;5.862;2023-02-15T07:29:11;12.68;;;7.10;;
64789;SDS011;51223;51.816;5.862;2023-02-15T07:31:40;18.00;;;10.52;;
64789;SDS011;51223;51.816;5.862;2023-02-15T07:34:06;19.58;;;10.07;;
64789;SDS011;51223;51.816;5.862;2023-02-15T07:36:32;21.90;;;11.10;;
64789;SDS011;51223;51.816;5.862;2023-02-15T07:38:57;17.98;;;9.70;;
64789;SDS011;51223;51.816;5.862;2023-02-15T07:41:23;18.05;;;9.07;;
64789;SDS011;51223;51.816;5.862;2023-02-15T07:43:48;18.05;;;9.38;;
64789;SDS011;51223;51.816;5.862;2023-02-15T07:46:15;17.63;;;9.57;;
64789;SDS011;51223;51.816;5.862;2023-02-15T07:48:46;19.02;;;9.32;;
64789;SDS011;51223;51.816;5.862;2023-02-15T07:51:12;18.35;;;10.13;;
64789;SDS011;51223;51.816;5.862;2023-02-15T07:53:38;17.55;;;9.77;;
64789;SDS011;51223;51.816;5.862;2023-02-15T07:56:05;19.48;;;10.10;;
64789;SDS011;51223;51.816;5.862;2023-02-15T07:58:31;24.55;;;10.45;;
64789;SDS011;51223;51.816;5.862;2023-02-15T08:01:16;17.20;;;10.00;;
64789;SDS011;51223;51.816;5.862;2023-02-15T08:03:42;24.63;;;11.52;;
64789;SDS011;51223;51.816;5.862;2023-02-15T08:06:07;25.52;;;11.40;;
64789;SDS011;51223;51.816;5.862;2023-02-15T08:08:33;22.20;;;10.68;;
64789;SDS011;51223;51.816;5.862;2023-02-15T08:11:00;21.33;;;9.80;;
64789;SDS011;51223;51.816;5.862;2023-02-15T08:13:45;27.55;;;15.23;;
64789;SDS011;51223;51.816;5.862;2023-02-15T08:16:25;18.80;;;10.65;;
64789;SDS011;51223;51.816;5.862;2023-02-15T08:18:51;13.02;;;9.25;;
64789;SDS011;51223;51.816;5.862;2023-02-15T08:21:17;10.95;;;6.45;;
64789;SDS011;51223;51.816;5.862;2023-02-15T08:23:43;18.95;;;11.30;;
64789;SDS011;51223;51.816;5.862;2023-02-15T08:26:09;19.83;;;11.13;;
64789;SDS011;51223;51.816;5.862;2023-02-15T08:28:41;21.73;;;10.95;;
64789;SDS011;51223;51.816;5.862;2023-02-15T08:31:07;19.20;;;10.20;;
64789;SDS011;51223;51.816;5.862;2023-02-15T08:33:33;17.20;;;9.07;;
64789;SDS011;51223;51.816;5.862;2023-02-15T08:36:05;21.90;;;11.32;;
64789;SDS011;51223;51.816;5.862;2023-02-15T08:38:31;20.20;;;10.07;;
64789;SDS011;51223;51.816;5.862;2023-02-15T08:41:20;20.98;;;9.80;;
64789;SDS011;51223;51.816;5.862;2023-02-15T08:43:45;23.23;;;12.07;;
64789;SDS011;51223;51.816;5.862;2023-02-15T08:46:11;20.77;;;11.18;;
64789;SDS011;51223;51.816;5.862;2023-02-15T08:48:37;19.63;;;10.48;;
64789;SDS011;51223;51.816;5.862;2023-02-15T08:51:09;11.25;;;7.40;;
64789;SDS011;51223;51.816;5.862;2023-02-15T08:53:36;10.48;;;6.85;;
64789;SDS011;51223;51.816;5.862;2023-02-15T08:56:02;14.40;;;7.90;;
64789;SDS011;51223;51.816;5.862;2023-02-15T08:58:28;15.07;;;8.02;;
64789;SDS011;51223;51.816;5.862;2023-02-15T09:00:53;24.65;;;8.40;;
64789;SDS011;51223;51.816;5.862;2023-02-15T09:03:22;11.25;;;7.57;;
64789;SDS011;51223;51.816;5.862;2023-02-15T09:05:47;11.35;;;7.82;;
64789;SDS011;51223;51.816;5.862;2023-02-15T09:08:13;14.15;;;6.57;;
64789;SDS011;51223;51.816;5.862;2023-02-15T09:10:38;10.73;;;6.13;;
64789;SDS011;51223;51.816;5.862;2023-02-15T09:13:04;9.27;;;6.60;;
64789;SDS011;51223;51.816;5.862;2023-02-15T09:15:30;10.13;;;6.00;;
64789;SDS011;51223;51.816;5.862;2023-02-15T09:17:55;7.65;;;5.47;;
64789;SDS011;51223;51.816;5.862;2023-02-15T09:20:24;10.60;;;5.95;;
64789;SDS011;51223;51.816;5.862;2023-02-15T09:22:51;11.30;;;6.38;;
64789;SDS011;51223;51.816;5.862;2023-02-15T09:25:16;10.38;;;5.45;;
64789;SDS011;51223;51.816;5.862;2023-02-15T09:27:42;12.70;;;6.97;;
64789;SDS011;51223;51.816;5.862;2023-02-15T09:30:08;13.32;;;7.10;;
64789;SDS011;51223;51.816;5.862;2023-02-15T09:32:37;16.70;;;5.88;;
64789;SDS011;51223;51.816;5.862;2023-02-15T09:35:02;11.73;;;6.25;;
64789;SDS011;51223;51.816;5.862;2023-02-15T09:37:29;15.73;;;8.90;;
64789;SDS011;51223;51.816;5.862;2023-02-15T09:39:55;9.00;;;5.45;;
64789;SDS011;51223;51.816;5.862;2023-02-15T09:48:17;7.78;;;5.90;;
64789;SDS011;51223;51.816;5.862;2023-02-15T09:58:28;6.40;;;2.85;;
64789;SDS011;51223;51.816;5.862;2023-02-15T10:01:00;12.90;;;5.40;;
64789;SDS011;51223;51.816;5.862;2023-02-15T10:06:27;9.32;;;4.90;;
64789;SDS011;51223;51.816;5.862;2023-02-15T10:19:32;12.50;;;6.30;;
64789;SDS011;51223;51.816;5.862;2023-02-15T10:27:15;7.53;;;5.22;;
64789;SDS011;51223;51.816;5.862;2023-02-15T10:29:48;17.30;;;5.90;;
64789;SDS011;51223;51.816;5.862;2023-02-15T10:32:20;11.73;;;5.93;;
64789;SDS011;51223;51.816;5.862;2023-02-15T10:34:50;10.32;;;6.57;;
64789;SDS011;51223;51.816;5.862;2023-02-15T10:40:14;7.43;;;5.15;;
64789;SDS011;51223;51.816;5.862;2023-02-15T10:45:20;9.77;;;6.35;;
64789;SDS011;51223;51.816;5.862;2023-02-15T10:50:27;17.70;;;8.32;;
64789;SDS011;51223;51.816;5.862;2023-02-15T11:08:23;9.82;;;6.20;;
64789;SDS011;51223;51.816;5.862;2023-02-15T11:10:59;11.45;;;6.97;;
64789;SDS011;51223;51.816;5.862;2023-02-15T11:13:27;12.40;;;7.18;;
64789;SDS011;51223;51.816;5.862;2023-02-15T11:15:55;16.35;;;8.85;;
64789;SDS011;51223;51.816;5.862;2023-02-15T11:20:55;21.48;;;11.63;;
64789;SDS011;51223;51.816;5.862;2023-02-15T11:23:22;9.88;;;6.57;;
64789;SDS011;51223;51.816;5.862;2023-02-15T11:25:54;9.60;;;3.92;;
64789;SDS011;51223;51.816;5.862;2023-02-15T11:28:25;13.75;;;7.93;;
64789;SDS011;51223;51.816;5.862;2023-02-15T11:30:55;17.45;;;8.98;;
64789;SDS011;51223;51.816;5.862;2023-02-15T11:33:27;5.97;;;4.07;;
64789;SDS011;51223;51.816;5.862;2023-02-15T11:36:00;14.63;;;7.18;;
64789;SDS011;51223;51.816;5.862;2023-02-15T11:38:32;16.45;;;9.15;;
64789;SDS011;51223;51.816;5.862;2023-02-15T11:41:10;14.63;;;8.60;;
64789;SDS011;51223;51.816;5.862;2023-02-15T11:46:02;10.48;;;6.45;;
64789;SDS011;51223;51.816;5.862;2023-02-15T11:48:28;17.85;;;8.85;;
64789;SDS011;51223;51.816;5.862;2023-02-15T11:50:54;22.67;;;10.20;;
64789;SDS011;51223;51.816;5.862;2023-02-15T11:53:21;11.20;;;6.00;;
64789;SDS011;51223;51.816;5.862;2023-02-15T11:55:53;15.30;;;6.95;;
64789;SDS011;51223;51.816;5.862;2023-02-15T11:58:39;5.72;;;3.20;;
64789;SDS011;51223;51.816;5.862;2023-02-15T12:01:14;20.52;;;8.88;;
64789;SDS011;51223;51.816;5.862;2023-02-15T12:03:48;16.23;;;8.50;;
64789;SDS011;51223;51.816;5.862;2023-02-15T12:06:16;17.75;;;8.20;;
64789;SDS011;51223;51.816;5.862;2023-02-15T12:08:43;10.10;;;6.57;;
64789;SDS011;51223;51.816;5.862;2023-02-15T12:11:12;6.43;;;5.35;;
64789;SDS011;51223;51.816;5.862;2023-02-15T12:13:53;11.63;;;6.50;;
64789;SDS011;51223;51.816;5.862;2023-02-15T12:16:19;14.98;;;7.63;;
64789;SDS011;51223;51.816;5.862;2023-02-15T12:18:45;9.65;;;5.70;;
64789;SDS011;51223;51.816;5.862;2023-02-15T12:21:14;9.38;;;6.20;;
64789;SDS011;51223;51.816;5.862;2023-02-15T12:23:54;13.23;;;8.38;;
64789;SDS011;51223;51.816;5.862;2023-02-15T12:26:27;11.75;;;6.38;;
64789;SDS011;51223;51.816;5.862;2023-02-15T12:28:53;16.13;;;7.80;;
64789;SDS011;51223;51.816;5.862;2023-02-15T12:34:20;13.90;;;7.63;;
64789;SDS011;51223;51.816;5.862;2023-02-15T12:36:53;15.98;;;8.82;;
64789;SDS011;51223;51.816;5.862;2023-02-15T12:39:27;18.45;;;7.70;;
64789;SDS011;51223;51.816;5.862;2023-02-15T12:44:22;15.20;;;7.90;;
64789;SDS011;51223;51.816;5.862;2023-02-15T12:46:56;14.55;;;8.65;;
64789;SDS011;51223;51.816;5.862;2023-02-15T12:49:21;14.55;;;8.48;;
64789;SDS011;51223;51.816;5.862;2023-02-15T12:59:47;11.20;;;8.05;;
64789;SDS011;51223;51.816;5.862;2023-02-15T13:02:23;17.83;;;9.13;;
64789;SDS011;51223;51.816;5.862;2023-02-15T13:04:50;10.80;;;6.80;;
64789;SDS011;51223;51.816;5.862;2023-02-15T13:07:16;11.60;;;6.53;;
64789;SDS011;51223;51.816;5.862;2023-02-15T13:09:44;20.42;;;9.30;;
64789;SDS011;51223;51.816;5.862;2023-02-15T13:14:36;14.18;;;7.20;;
64789;SDS011;51223;51.816;5.862;2023-02-15T13:17:02;11.50;;;6.40;;
64789;SDS011;51223;51.816;5.862;2023-02-15T13:21:57;17.50;;;8.75;;
64789;SDS011;51223;51.816;5.862;2023-02-15T13:24:33;12.90;;;7.18;;
64789;SDS011;51223;51.816;5.862;2023-02-15T13:27:00;3.20;;;2.72;;
64789;SDS011;51223;51.816;5.862;2023-02-15T13:29:27;17.63;;;9.30;;
64789;SDS011;51223;51.816;5.862;2023-02-15T13:31:54;8.65;;;5.28;;
64789;SDS011;51223;51.816;5.862;2023-02-15T13:34:24;13.70;;;7.10;;
64789;SDS011;51223;51.816;5.862;2023-02-15T13:47:03;17.63;;;7.97;;
64789;SDS011;51223;51.816;5.862;2023-02-15T14:09:42;19.90;;;8.05;;
64789;SDS011;51223;51.816;5.862;2023-02-15T14:22:30;12.93;;;7.68;;
64789;SDS011;51223;51.816;5.862;2023-02-15T14:30:10;9.73;;;6.85;;
64789;SDS011;51223;51.816;5.862;2023-02-15T14:32:41;18.23;;;8.93;;
64789;SDS011;51223;51.816;5.862;2023-02-15T14:35:18;15.20;;;7.88;;
64789;SDS011;51223;51.816;5.862;2023-02-15T14:37:46;15.68;;;8.05;;
64789;SDS011;51223;51.816;5.862;2023-02-15T14:40:29;12.70;;;7.30;;
64789;SDS011;51223;51.816;5.862;2023-02-15T14:46:21;19.83;;;7.85;;
64789;SDS011;51223;51.816;5.862;2023-02-15T14:48:53;17.15;;;10.35;;
64789;SDS011;51223;51.816;5.862;2023-02-15T14:54:04;21.25;;;9.02;;
64789;SDS011;51223;51.816;5.862;2023-02-15T14:56:32;18.50;;;8.98;;
64789;SDS011;51223;51.816;5.862;2023-02-15T14:58:58;17.08;;;9.07;;
64789;SDS011;51223;51.816;5.862;2023-02-15T15:01:28;20.45;;;9.73;;
64789;SDS011;51223;51.816;5.862;2023-02-15T15:03:58;27.73;;;9.70;;
64789;SDS011;51223;51.816;5.862;2023-02-15T15:06:35;11.40;;;6.72;;
64789;SDS011;51223;51.816;5.862;2023-02-15T15:09:10;18.08;;;8.90;;
64789;SDS011;51223;51.816;5.862;2023-02-15T15:11:41;17.77;;;7.72;;
64789;SDS011;51223;51.816;5.862;2023-02-15T15:14:07;23.70;;;8.23;;
64789;SDS011;51223;51.816;5.862;2023-02-15T15:29:46;12.88;;;6.55;;
64789;SDS011;51223;51.816;5.862;2023-02-15T15:32:12;18.60;;;7.65;;
64789;SDS011;51223;51.816;5.862;2023-02-15T15:39:59;18.05;;;8.95;;
64789;SDS011;51223;51.816;5.862;2023-02-15T15:49:47;13.98;;;8.30;;
64789;SDS011;51223;51.816;5.862;2023-02-15T15:52:19;19.15;;;9.88;;
64789;SDS011;51223;51.816;5.862;2023-02-15T15:54:46;14.98;;;7.95;;
64789;SDS011;51223;51.816;5.862;2023-02-15T15:57:30;16.90;;;8.50;;
64789;SDS011;51223;51.816;5.862;2023-02-15T15:59:57;17.30;;;8.93;;
64789;SDS011;51223;51.816;5.862;2023-02-15T16:02:25;20.63;;;9.73;;
64789;SDS011;51223;51.816;5.862;2023-02-15T16:04:50;17.45;;;9.73;;
64789;SDS011;51223;51.816;5.862;2023-02-15T16:12:22;17.95;;;9.65;;
64789;SDS011;51223;51.816;5.862;2023-02-15T16:14:48;19.10;;;8.23;;
64789;SDS011;51223;51.816;5.862;2023-02-15T16:17:19;19.65;;;8.95;;
64789;SDS011;51223;51.816;5.862;2023-02-15T16:19:45;19.83;;;8.15;;
64789;SDS011;51223;51.816;5.862;2023-02-15T16:22:32;19.00;;;8.88;;
64789;SDS011;51223;51.816;5.862;2023-02-15T16:27:32;14.90;;;8.23;;
64789;SDS011;51223;51.816;5.862;2023-02-15T16:29:58;15.95;;;9.85;;
64789;SDS011;51223;51.816;5.862;2023-02-15T16:32:25;16.75;;;8.98;;
64789;SDS011;51223;51.816;5.862;2023-02-15T16:34:55;19.13;;;9.38;;
64789;SDS011;51223;51.816;5.862;2023-02-15T16:37:25;24.60;;;11.00;;
64789;SDS011;51223;51.816;5.862;2023-02-15T16:39:53;22.52;;;10.00;;
64789;SDS011;51223;51.816;5.862;2023-02-15T16:42:19;19.23;;;9.18;;
64789;SDS011;51223;51.816;5.862;2023-02-15T16:44:45;18.38;;;9.82;;
64789;SDS011;51223;51.816;5.862;2023-02-15T16:47:15;15.27;;;8.82;;
64789;SDS011;51223;51.816;5.862;2023-02-15T16:49:43;24.05;;;10.02;;
64789;SDS011;51223;51.816;5.862;2023-02-15T16:52:12;15.27;;;9.35;;
64789;SDS011;51223;51.816;5.862;2023-02-15T16:54:41;18.70;;;9.63;;
64789;SDS011;51223;51.816;5.862;2023-02-15T16:57:15;20.27;;;10.32;;
64789;SDS011;51223;51.816;5.862;2023-02-15T16:59:41;15.43;;;8.55;;
64789;SDS011;51223;51.816;5.862;2023-02-15T17:02:17;16.52;;;8.63;;
64789;SDS011;51223;51.816;5.862;2023-02-15T17:04:43;21.17;;;9.90;;
64789;SDS011;51223;51.816;5.862;2023-02-15T17:07:18;18.15;;;9.13;;
64789;SDS011;51223;51.816;5.862;2023-02-15T17:09:54;19.63;;;9.85;;
64789;SDS011;51223;51.816;5.862;2023-02-15T17:15:23;25.95;;;11.98;;
64789;SDS011;51223;51.816;5.862;2023-02-15T17:17:49;19.88;;;11.82;;
64789;SDS011;51223;51.816;5.862;2023-02-15T17:20:15;14.80;;;8.90;;
64789;SDS011;51223;51.816;5.862;2023-02-15T17:22:41;15.00;;;8.75;;
64789;SDS011;51223;51.816;5.862;2023-02-15T17:25:14;21.65;;;9.90;;
64789;SDS011;51223;51.816;5.862;2023-02-15T17:27:50;19.30;;;10.80;;
64789;SDS011;51223;51.816;5.862;2023-02-15T17:30:17;17.55;;;9.35;;
64789;SDS011;51223;51.816;5.862;2023-02-15T17:32:56;15.90;;;8.95;;
64789;SDS011;51223;51.816;5.862;2023-02-15T17:35:23;19.83;;;9.52;;
64789;SDS011;51223;51.816;5.862;2023-02-15T17:37:50;18.10;;;8.73;;
64789;SDS011;51223;51.816;5.862;2023-02-15T17:40:29;18.75;;;8.50;;
64789;SDS011;51223;51.816;5.862;2023-02-15T17:42:55;16.02;;;8.55;;
64789;SDS011;51223;51.816;5.862;2023-02-15T17:45:21;18.27;;;9.07;;
64789;SDS011;51223;51.816;5.862;2023-02-15T17:47:50;18.48;;;9.88;;
64789;SDS011;51223;51.816;5.862;2023-02-15T17:50:20;16.42;;;8.82;;
64789;SDS011;51223;51.816;5.862;2023-02-15T17:52:46;18.27;;;9.95;;
64789;SDS011;51223;51.816;5.862;2023-02-15T17:55:12;22.75;;;9.13;;
64789;SDS011;51223;51.816;5.862;2023-02-15T17:57:57;21.52;;;10.55;;
64789;SDS011;51223;51.816;5.862;2023-02-15T18:00:25;22.58;;;9.65;;
64789;SDS011;51223;51.816;5.862;2023-02-15T18:03:10;20.27;;;9.85;;
64789;SDS011;51223;51.816;5.862;2023-02-15T18:08:39;13.70;;;7.75;;
64789;SDS011;51223;51.816;5.862;2023-02-15T18:11:23;22.13;;;10.85;;
64789;SDS011;51223;51.816;5.862;2023-02-15T18:13:59;16.83;;;9.93;;
64789;SDS011;51223;51.816;5.862;2023-02-15T18:16:29;21.67;;;8.98;;